sensor_id;sensor_type;location;lat;lon;timestamp;P1;durP1;ratioP1;P2;durP2;ratioP2
55435;SDS011;41307;53.142;6.430;2023-09-08T00:01:56;5.82;;;4.15;;
55435;SDS011;41307;53.142;6.430;2023-09-08T00:04:22;6.25;;;3.97;;
55435;SDS011;41307;53.142;6.430;2023-09-08T00:06:51;6.55;;;4.43;;
55435;SDS011;41307;53.142;6.430;2023-09-08T00:09:17;6.40;;;4.13;;
55435;SDS011;41307;53.142;6.430;2023-09-08T00:11:42;6.93;;;4.07;;
55435;SDS011;41307;53.142;6.430;2023-09-08T00:14:08;5.95;;;3.92;;
55435;SDS011;41307;53.142;6.430;2023-09-08T00:16:34;6.53;;;4.22;;
55435;SDS011;41307;53.142;6.430;2023-09-08T00:18:59;5.35;;;3.85;;
55435;SDS011;41307;53.142;6.430;2023-09-08T00:21:25;6.25;;;4.38;;
55435;SDS011;41307;53.142;6.430;2023-09-08T00:23:52;6.18;;;4.45;;
55435;SDS011;41307;53.142;6.430;2023-09-08T00:26:18;7.05;;;4.65;;
55435;SDS011;41307;53.142;6.430;2023-09-08T00:28:44;6.68;;;4.35;;
55435;SDS011;41307;53.142;6.430;2023-09-08T00:31:09;6.00;;;3.95;;
55435;SDS011;41307;53.142;6.430;2023-09-08T00:33:35;6.00;;;4.20;;
55435;SDS011;41307;53.142;6.430;2023-09-08T00:36:02;6.40;;;4.28;;
55435;SDS011;41307;53.142;6.430;2023-09-08T00:38:28;5.90;;;3.90;;
55435;SDS011;41307;53.142;6.430;2023-09-08T00:40:54;6.68;;;4.60;;
55435;SDS011;41307;53.142;6.430;2023-09-08T00:43:19;7.30;;;4.57;;
55435;SDS011;41307;53.142;6.430;2023-09-08T00:45:45;6.45;;;4.07;;
55435;SDS011;41307;53.142;6.430;2023-09-08T00:48:11;6.28;;;4.85;;
55435;SDS011;41307;53.142;6.430;2023-09-08T00:50:38;6.05;;;4.28;;
55435;SDS011;41307;53.142;6.430;2023-09-08T00:53:04;8.55;;;4.78;;
55435;SDS011;41307;53.142;6.430;2023-09-08T00:55:31;7.72;;;4.90;;
55435;SDS011;41307;53.142;6.430;2023-09-08T00:57:57;6.32;;;4.63;;
55435;SDS011;41307;53.142;6.430;2023-09-08T01:00:26;7.45;;;4.60;;
55435;SDS011;41307;53.142;6.430;2023-09-08T01:02:52;7.05;;;4.47;;
55435;SDS011;41307;53.142;6.430;2023-09-08T01:05:18;6.90;;;4.60;;
55435;SDS011;41307;53.142;6.430;2023-09-08T01:07:45;7.65;;;4.50;;
55435;SDS011;41307;53.142;6.430;2023-09-08T01:10:12;7.53;;;5.03;;
55435;SDS011;41307;53.142;6.430;2023-09-08T01:12:38;9.52;;;4.57;;
55435;SDS011;41307;53.142;6.430;2023-09-08T01:15:05;6.50;;;4.47;;
55435;SDS011;41307;53.142;6.430;2023-09-08T01:17:31;8.48;;;4.95;;
55435;SDS011;41307;53.142;6.430;2023-09-08T01:19:58;6.50;;;4.72;;
55435;SDS011;41307;53.142;6.430;2023-09-08T01:25:33;9.27;;;5.45;;
55435;SDS011;41307;53.142;6.430;2023-09-08T01:28:05;6.82;;;5.07;;
55435;SDS011;41307;53.142;6.430;2023-09-08T01:30:31;7.50;;;4.88;;
55435;SDS011;41307;53.142;6.430;2023-09-08T01:32:58;7.85;;;5.35;;
55435;SDS011;41307;53.142;6.430;2023-09-08T01:35:25;7.85;;;5.35;;
55435;SDS011;41307;53.142;6.430;2023-09-08T01:37:51;8.18;;;5.07;;
55435;SDS011;41307;53.142;6.430;2023-09-08T01:40:16;8.23;;;5.28;;
55435;SDS011;41307;53.142;6.430;2023-09-08T01:42:44;7.82;;;5.40;;
55435;SDS011;41307;53.142;6.430;2023-09-08T01:45:10;8.73;;;5.22;;
55435;SDS011;41307;53.142;6.430;2023-09-08T01:47:36;7.80;;;5.05;;
55435;SDS011;41307;53.142;6.430;2023-09-08T01:50:02;6.95;;;5.25;;
55435;SDS011;41307;53.142;6.430;2023-09-08T01:52:28;7.28;;;4.88;;
55435;SDS011;41307;53.142;6.430;2023-09-08T01:54:53;7.82;;;4.93;;
55435;SDS011;41307;53.142;6.430;2023-09-08T01:57:19;6.60;;;5.38;;
55435;SDS011;41307;53.142;6.430;2023-09-08T01:59:45;8.57;;;5.53;;
55435;SDS011;41307;53.142;6.430;2023-09-08T02:02:11;8.45;;;5.45;;
55435;SDS011;41307;53.142;6.430;2023-09-08T02:04:37;8.65;;;5.60;;
55435;SDS011;41307;53.142;6.430;2023-09-08T02:07:03;7.97;;;5.20;;
55435;SDS011;41307;53.142;6.430;2023-09-08T02:09:33;7.13;;;5.47;;
55435;SDS011;41307;53.142;6.430;2023-09-08T02:12:00;8.93;;;5.75;;
55435;SDS011;41307;53.142;6.430;2023-09-08T02:14:26;7.53;;;5.43;;
55435;SDS011;41307;53.142;6.430;2023-09-08T02:16:53;8.63;;;5.15;;
55435;SDS011;41307;53.142;6.430;2023-09-08T02:19:19;7.82;;;5.05;;
55435;SDS011;41307;53.142;6.430;2023-09-08T02:21:45;7.32;;;5.10;;
55435;SDS011;41307;53.142;6.430;2023-09-08T02:24:11;6.85;;;5.18;;
55435;SDS011;41307;53.142;6.430;2023-09-08T02:26:37;6.68;;;4.70;;
55435;SDS011;41307;53.142;6.430;2023-09-08T02:29:03;7.72;;;5.25;;
55435;SDS011;41307;53.142;6.430;2023-09-08T02:31:29;7.30;;;5.10;;
55435;SDS011;41307;53.142;6.430;2023-09-08T02:33:55;6.93;;;5.15;;
55435;SDS011;41307;53.142;6.430;2023-09-08T02:36:21;7.47;;;4.97;;
55435;SDS011;41307;53.142;6.430;2023-09-08T02:38:51;8.57;;;5.55;;
55435;SDS011;41307;53.142;6.430;2023-09-08T02:41:20;7.65;;;5.32;;
55435;SDS011;41307;53.142;6.430;2023-09-08T02:43:46;7.13;;;5.38;;
55435;SDS011;41307;53.142;6.430;2023-09-08T02:46:12;7.68;;;5.30;;
55435;SDS011;41307;53.142;6.430;2023-09-08T02:48:38;6.85;;;5.20;;
55435;SDS011;41307;53.142;6.430;2023-09-08T02:51:04;6.55;;;4.90;;
55435;SDS011;41307;53.142;6.430;2023-09-08T02:53:30;7.55;;;5.30;;
55435;SDS011;41307;53.142;6.430;2023-09-08T02:55:56;10.25;;;5.55;;
55435;SDS011;41307;53.142;6.430;2023-09-08T02:58:23;7.95;;;5.35;;
55435;SDS011;41307;53.142;6.430;2023-09-08T03:00:49;7.80;;;5.20;;
55435;SDS011;41307;53.142;6.430;2023-09-08T03:03:17;7.30;;;5.07;;
55435;SDS011;41307;53.142;6.430;2023-09-08T03:05:43;9.15;;;5.60;;
55435;SDS011;41307;53.142;6.430;2023-09-08T03:08:09;7.78;;;5.32;;
55435;SDS011;41307;53.142;6.430;2023-09-08T03:10:35;6.78;;;5.13;;
55435;SDS011;41307;53.142;6.430;2023-09-08T03:13:01;8.93;;;5.63;;
55435;SDS011;41307;53.142;6.430;2023-09-08T03:15:27;7.72;;;5.97;;
55435;SDS011;41307;53.142;6.430;2023-09-08T03:17:56;8.38;;;5.78;;
55435;SDS011;41307;53.142;6.430;2023-09-08T03:20:24;7.38;;;5.53;;
55435;SDS011;41307;53.142;6.430;2023-09-08T03:22:53;8.68;;;5.57;;
55435;SDS011;41307;53.142;6.430;2023-09-08T03:25:20;8.50;;;5.82;;
55435;SDS011;41307;53.142;6.430;2023-09-08T03:27:46;7.13;;;5.40;;
55435;SDS011;41307;53.142;6.430;2023-09-08T03:30:12;8.07;;;5.43;;
55435;SDS011;41307;53.142;6.430;2023-09-08T03:32:38;8.82;;;5.80;;
55435;SDS011;41307;53.142;6.430;2023-09-08T03:35:04;6.68;;;5.22;;
55435;SDS011;41307;53.142;6.430;2023-09-08T03:37:36;8.48;;;5.68;;
55435;SDS011;41307;53.142;6.430;2023-09-08T03:40:02;9.10;;;5.88;;
55435;SDS011;41307;53.142;6.430;2023-09-08T03:42:30;8.55;;;6.10;;
55435;SDS011;41307;53.142;6.430;2023-09-08T03:44:56;6.97;;;5.30;;
55435;SDS011;41307;53.142;6.430;2023-09-08T03:47:22;7.07;;;5.28;;
55435;SDS011;41307;53.142;6.430;2023-09-08T03:49:47;8.48;;;5.85;;
55435;SDS011;41307;53.142;6.430;2023-09-08T03:52:13;8.55;;;5.82;;
55435;SDS011;41307;53.142;6.430;2023-09-08T03:54:39;8.55;;;5.80;;
55435;SDS011;41307;53.142;6.430;2023-09-08T03:57:05;6.70;;;5.13;;
55435;SDS011;41307;53.142;6.430;2023-09-08T03:59:31;7.80;;;5.50;;
55435;SDS011;41307;53.142;6.430;2023-09-08T04:01:57;8.13;;;5.60;;
55435;SDS011;41307;53.142;6.430;2023-09-08T04:04:22;8.98;;;5.90;;
55435;SDS011;41307;53.142;6.430;2023-09-08T04:06:48;8.02;;;5.60;;
55435;SDS011;41307;53.142;6.430;2023-09-08T04:09:14;8.48;;;5.85;;
55435;SDS011;41307;53.142;6.430;2023-09-08T04:11:39;8.93;;;5.80;;
55435;SDS011;41307;53.142;6.430;2023-09-08T04:14:05;7.95;;;5.70;;
55435;SDS011;41307;53.142;6.430;2023-09-08T04:16:31;6.85;;;5.63;;
55435;SDS011;41307;53.142;6.430;2023-09-08T04:18:56;9.52;;;6.55;;
55435;SDS011;41307;53.142;6.430;2023-09-08T04:21:22;8.50;;;5.97;;
55435;SDS011;41307;53.142;6.430;2023-09-08T04:23:48;7.38;;;5.07;;
55435;SDS011;41307;53.142;6.430;2023-09-08T04:26:13;8.82;;;5.82;;
55435;SDS011;41307;53.142;6.430;2023-09-08T04:28:39;8.73;;;5.32;;
55435;SDS011;41307;53.142;6.430;2023-09-08T04:31:05;8.20;;;5.38;;
55435;SDS011;41307;53.142;6.430;2023-09-08T04:33:30;8.77;;;6.13;;
55435;SDS011;41307;53.142;6.430;2023-09-08T04:35:56;7.53;;;5.57;;
55435;SDS011;41307;53.142;6.430;2023-09-08T04:38:22;7.78;;;5.85;;
55435;SDS011;41307;53.142;6.430;2023-09-08T04:40:48;8.18;;;5.45;;
55435;SDS011;41307;53.142;6.430;2023-09-08T04:43:13;8.23;;;6.07;;
55435;SDS011;41307;53.142;6.430;2023-09-08T04:45:39;7.75;;;5.20;;
55435;SDS011;41307;53.142;6.430;2023-09-08T04:48:05;8.40;;;5.40;;
55435;SDS011;41307;53.142;6.430;2023-09-08T04:50:31;9.75;;;6.00;;
55435;SDS011;41307;53.142;6.430;2023-09-08T04:52:57;8.25;;;5.82;;
55435;SDS011;41307;53.142;6.430;2023-09-08T04:55:23;6.65;;;4.80;;
55435;SDS011;41307;53.142;6.430;2023-09-08T04:57:49;8.82;;;5.55;;
55435;SDS011;41307;53.142;6.430;2023-09-08T05:00:14;9.18;;;6.30;;
55435;SDS011;41307;53.142;6.430;2023-09-08T05:02:41;7.80;;;5.70;;
55435;SDS011;41307;53.142;6.430;2023-09-08T05:05:06;10.00;;;5.70;;
55435;SDS011;41307;53.142;6.430;2023-09-08T05:07:33;7.85;;;5.88;;
55435;SDS011;41307;53.142;6.430;2023-09-08T05:09:58;8.95;;;5.78;;
55435;SDS011;41307;53.142;6.430;2023-09-08T05:12:24;8.93;;;6.05;;
55435;SDS011;41307;53.142;6.430;2023-09-08T05:14:50;9.25;;;6.00;;
55435;SDS011;41307;53.142;6.430;2023-09-08T05:17:20;9.48;;;5.78;;
55435;SDS011;41307;53.142;6.430;2023-09-08T05:19:46;8.88;;;5.88;;
55435;SDS011;41307;53.142;6.430;2023-09-08T05:22:12;9.35;;;6.03;;
55435;SDS011;41307;53.142;6.430;2023-09-08T05:24:38;9.27;;;6.00;;
55435;SDS011;41307;53.142;6.430;2023-09-08T05:27:04;8.95;;;5.80;;
55435;SDS011;41307;53.142;6.430;2023-09-08T05:29:29;7.72;;;5.35;;
55435;SDS011;41307;53.142;6.430;2023-09-08T05:31:55;7.88;;;5.32;;
55435;SDS011;41307;53.142;6.430;2023-09-08T05:34:21;8.20;;;5.53;;
55435;SDS011;41307;53.142;6.430;2023-09-08T05:36:47;7.32;;;5.72;;
55435;SDS011;41307;53.142;6.430;2023-09-08T05:39:14;8.15;;;5.82;;
55435;SDS011;41307;53.142;6.430;2023-09-08T05:41:40;8.65;;;5.85;;
55435;SDS011;41307;53.142;6.430;2023-09-08T05:44:06;8.18;;;5.38;;
55435;SDS011;41307;53.142;6.430;2023-09-08T05:46:32;7.97;;;5.63;;
55435;SDS011;41307;53.142;6.430;2023-09-08T05:48:57;8.77;;;6.28;;
55435;SDS011;41307;53.142;6.430;2023-09-08T05:51:23;8.02;;;5.78;;
55435;SDS011;41307;53.142;6.430;2023-09-08T05:53:49;7.85;;;5.72;;
55435;SDS011;41307;53.142;6.430;2023-09-08T05:56:14;7.93;;;5.75;;
55435;SDS011;41307;53.142;6.430;2023-09-08T05:58:40;8.02;;;5.43;;
55435;SDS011;41307;53.142;6.430;2023-09-08T06:01:06;8.32;;;5.78;;
55435;SDS011;41307;53.142;6.430;2023-09-08T06:03:32;7.25;;;5.30;;
55435;SDS011;41307;53.142;6.430;2023-09-08T06:05:58;9.68;;;5.47;;
55435;SDS011;41307;53.142;6.430;2023-09-08T06:08:23;7.97;;;5.90;;
55435;SDS011;41307;53.142;6.430;2023-09-08T06:10:52;8.07;;;5.72;;
55435;SDS011;41307;53.142;6.430;2023-09-08T06:13:18;7.68;;;5.50;;
55435;SDS011;41307;53.142;6.430;2023-09-08T06:15:44;7.07;;;5.55;;
55435;SDS011;41307;53.142;6.430;2023-09-08T06:18:15;7.20;;;5.45;;
55435;SDS011;41307;53.142;6.430;2023-09-08T06:20:44;9.15;;;5.88;;
55435;SDS011;41307;53.142;6.430;2023-09-08T06:23:11;7.90;;;5.30;;
55435;SDS011;41307;53.142;6.430;2023-09-08T06:25:37;7.50;;;5.10;;
55435;SDS011;41307;53.142;6.430;2023-09-08T06:28:03;7.57;;;5.28;;
55435;SDS011;41307;53.142;6.430;2023-09-08T06:30:29;6.60;;;4.70;;
55435;SDS011;41307;53.142;6.430;2023-09-08T06:32:55;10.55;;;5.55;;
55435;SDS011;41307;53.142;6.430;2023-09-08T06:35:20;8.02;;;5.38;;
55435;SDS011;41307;53.142;6.430;2023-09-08T06:37:46;7.85;;;4.93;;
55435;SDS011;41307;53.142;6.430;2023-09-08T06:40:12;8.65;;;5.95;;
55435;SDS011;41307;53.142;6.430;2023-09-08T06:42:38;7.55;;;5.45;;
55435;SDS011;41307;53.142;6.430;2023-09-08T06:45:03;8.77;;;5.35;;
55435;SDS011;41307;53.142;6.430;2023-09-08T06:47:30;7.35;;;5.32;;
55435;SDS011;41307;53.142;6.430;2023-09-08T06:49:55;8.70;;;5.40;;
55435;SDS011;41307;53.142;6.430;2023-09-08T06:52:21;7.70;;;4.90;;
55435;SDS011;41307;53.142;6.430;2023-09-08T06:54:47;8.38;;;4.82;;
55435;SDS011;41307;53.142;6.430;2023-09-08T06:57:13;6.20;;;4.57;;
55435;SDS011;41307;53.142;6.430;2023-09-08T06:59:38;7.40;;;4.75;;
55435;SDS011;41307;53.142;6.430;2023-09-08T07:02:04;7.13;;;5.35;;
55435;SDS011;41307;53.142;6.430;2023-09-08T07:04:32;7.60;;;4.43;;
55435;SDS011;41307;53.142;6.430;2023-09-08T07:06:57;6.25;;;4.55;;
55435;SDS011;41307;53.142;6.430;2023-09-08T07:09:30;7.43;;;5.43;;
55435;SDS011;41307;53.142;6.430;2023-09-08T07:11:55;6.80;;;4.55;;
55435;SDS011;41307;53.142;6.430;2023-09-08T07:14:21;7.93;;;5.22;;
55435;SDS011;41307;53.142;6.430;2023-09-08T07:16:48;6.75;;;4.85;;
55435;SDS011;41307;53.142;6.430;2023-09-08T07:19:13;5.97;;;4.43;;
55435;SDS011;41307;53.142;6.430;2023-09-08T07:21:39;6.38;;;4.57;;
55435;SDS011;41307;53.142;6.430;2023-09-08T07:24:05;6.50;;;4.45;;
55435;SDS011;41307;53.142;6.430;2023-09-08T07:26:31;6.82;;;4.45;;
55435;SDS011;41307;53.142;6.430;2023-09-08T07:28:57;7.00;;;4.10;;
55435;SDS011;41307;53.142;6.430;2023-09-08T07:31:22;5.47;;;4.22;;
55435;SDS011;41307;53.142;6.430;2023-09-08T07:33:51;6.43;;;4.30;;
55435;SDS011;41307;53.142;6.430;2023-09-08T07:36:17;5.53;;;4.07;;
55435;SDS011;41307;53.142;6.430;2023-09-08T07:38:43;5.97;;;3.53;;
55435;SDS011;41307;53.142;6.430;2023-09-08T07:41:08;3.83;;;3.20;;
55435;SDS011;41307;53.142;6.430;2023-09-08T07:43:36;5.25;;;3.47;;
55435;SDS011;41307;53.142;6.430;2023-09-08T07:46:05;5.18;;;3.50;;
55435;SDS011;41307;53.142;6.430;2023-09-08T07:48:32;4.05;;;3.03;;
55435;SDS011;41307;53.142;6.430;2023-09-08T07:50:58;4.78;;;2.90;;
55435;SDS011;41307;53.142;6.430;2023-09-08T07:53:25;4.90;;;3.28;;
55435;SDS011;41307;53.142;6.430;2023-09-08T07:55:54;4.28;;;3.20;;
55435;SDS011;41307;53.142;6.430;2023-09-08T07:58:21;4.45;;;2.85;;
55435;SDS011;41307;53.142;6.430;2023-09-08T08:00:47;4.10;;;2.83;;
55435;SDS011;41307;53.142;6.430;2023-09-08T08:03:13;3.92;;;2.90;;
55435;SDS011;41307;53.142;6.430;2023-09-08T08:05:39;5.00;;;2.88;;
55435;SDS011;41307;53.142;6.430;2023-09-08T08:08:05;5.50;;;2.88;;
55435;SDS011;41307;53.142;6.430;2023-09-08T08:10:32;4.03;;;2.65;;
55435;SDS011;41307;53.142;6.430;2023-09-08T08:12:58;4.03;;;2.70;;
55435;SDS011;41307;53.142;6.430;2023-09-08T08:15:33;3.72;;;2.70;;
55435;SDS011;41307;53.142;6.430;2023-09-08T08:18:04;3.97;;;2.05;;
55435;SDS011;41307;53.142;6.430;2023-09-08T08:20:33;3.47;;;2.47;;
55435;SDS011;41307;53.142;6.430;2023-09-08T08:23:02;3.28;;;2.15;;
55435;SDS011;41307;53.142;6.430;2023-09-08T08:25:28;4.63;;;2.33;;
55435;SDS011;41307;53.142;6.430;2023-09-08T08:34:39;2.67;;;1.83;;
55435;SDS011;41307;53.142;6.430;2023-09-08T08:40:45;2.97;;;1.73;;
55435;SDS011;41307;53.142;6.430;2023-09-08T08:43:14;2.88;;;2.20;;
55435;SDS011;41307;53.142;6.430;2023-09-08T08:45:42;2.90;;;1.77;;
55435;SDS011;41307;53.142;6.430;2023-09-08T08:51:23;2.95;;;1.42;;
55435;SDS011;41307;53.142;6.430;2023-09-08T08:57:11;2.63;;;1.80;;
55435;SDS011;41307;53.142;6.430;2023-09-08T08:59:54;3.63;;;1.73;;
55435;SDS011;41307;53.142;6.430;2023-09-08T09:02:26;2.38;;;1.58;;
55435;SDS011;41307;53.142;6.430;2023-09-08T09:05:22;2.63;;;1.85;;
55435;SDS011;41307;53.142;6.430;2023-09-08T09:07:50;2.67;;;1.88;;
55435;SDS011;41307;53.142;6.430;2023-09-08T09:10:26;4.28;;;1.95;;
55435;SDS011;41307;53.142;6.430;2023-09-08T09:12:52;2.50;;;1.70;;
55435;SDS011;41307;53.142;6.430;2023-09-08T09:15:27;2.17;;;1.55;;
55435;SDS011;41307;53.142;6.430;2023-09-08T09:18:04;3.67;;;1.67;;
55435;SDS011;41307;53.142;6.430;2023-09-08T09:24:32;3.88;;;1.80;;
55435;SDS011;41307;53.142;6.430;2023-09-08T09:27:12;3.10;;;1.88;;
55435;SDS011;41307;53.142;6.430;2023-09-08T09:29:45;3.30;;;2.13;;
55435;SDS011;41307;53.142;6.430;2023-09-08T09:35:15;2.08;;;1.73;;
55435;SDS011;41307;53.142;6.430;2023-09-08T09:37:47;2.78;;;1.70;;
55435;SDS011;41307;53.142;6.430;2023-09-08T09:40:13;3.30;;;2.00;;
55435;SDS011;41307;53.142;6.430;2023-09-08T09:49:19;3.42;;;1.92;;
55435;SDS011;41307;53.142;6.430;2023-09-08T09:51:48;3.40;;;2.00;;
55435;SDS011;41307;53.142;6.430;2023-09-08T10:04:22;3.50;;;1.90;;
55435;SDS011;41307;53.142;6.430;2023-09-08T10:06:48;2.80;;;1.85;;
55435;SDS011;41307;53.142;6.430;2023-09-08T10:09:14;3.00;;;1.80;;
55435;SDS011;41307;53.142;6.430;2023-09-08T10:14:15;2.78;;;2.00;;
55435;SDS011;41307;53.142;6.430;2023-09-08T10:24:34;3.50;;;1.95;;
55435;SDS011;41307;53.142;6.430;2023-09-08T10:27:14;3.20;;;1.88;;
55435;SDS011;41307;53.142;6.430;2023-09-08T10:29:44;2.80;;;1.70;;
55435;SDS011;41307;53.142;6.430;2023-09-08T10:32:13;2.90;;;1.60;;
55435;SDS011;41307;53.142;6.430;2023-09-08T10:34:43;2.45;;;1.80;;
55435;SDS011;41307;53.142;6.430;2023-09-08T10:43:38;3.30;;;2.10;;
55435;SDS011;41307;53.142;6.430;2023-09-08T10:46:10;3.08;;;2.58;;
55435;SDS011;41307;53.142;6.430;2023-09-08T10:48:48;3.13;;;1.92;;
55435;SDS011;41307;53.142;6.430;2023-09-08T10:51:14;5.28;;;1.88;;
55435;SDS011;41307;53.142;6.430;2023-09-08T10:54:02;2.78;;;1.75;;
55435;SDS011;41307;53.142;6.430;2023-09-08T10:57:12;3.00;;;1.73;;
55435;SDS011;41307;53.142;6.430;2023-09-08T10:59:42;3.22;;;1.95;;
55435;SDS011;41307;53.142;6.430;2023-09-08T11:02:34;4.90;;;1.90;;
55435;SDS011;41307;53.142;6.430;2023-09-08T11:05:10;2.90;;;1.88;;
55435;SDS011;41307;53.142;6.430;2023-09-08T11:07:39;3.00;;;2.00;;
55435;SDS011;41307;53.142;6.430;2023-09-08T11:10:06;3.53;;;1.90;;
55435;SDS011;41307;53.142;6.430;2023-09-08T11:12:42;2.38;;;1.50;;
55435;SDS011;41307;53.142;6.430;2023-09-08T11:15:19;2.25;;;1.60;;
55435;SDS011;41307;53.142;6.430;2023-09-08T11:18:04;3.28;;;1.95;;
55435;SDS011;41307;53.142;6.430;2023-09-08T11:20:33;3.33;;;1.80;;
55435;SDS011;41307;53.142;6.430;2023-09-08T11:23:03;3.40;;;1.70;;
55435;SDS011;41307;53.142;6.430;2023-09-08T11:25:41;3.72;;;1.67;;
55435;SDS011;41307;53.142;6.430;2023-09-08T11:28:06;2.90;;;1.95;;
55435;SDS011;41307;53.142;6.430;2023-09-08T11:30:36;3.13;;;1.65;;
55435;SDS011;41307;53.142;6.430;2023-09-08T11:36:50;3.80;;;1.90;;
55435;SDS011;41307;53.142;6.430;2023-09-08T11:39:16;2.60;;;1.65;;
55435;SDS011;41307;53.142;6.430;2023-09-08T11:42:11;2.33;;;1.63;;
55435;SDS011;41307;53.142;6.430;2023-09-08T11:44:53;3.17;;;2.00;;
55435;SDS011;41307;53.142;6.430;2023-09-08T11:47:23;2.80;;;1.65;;
55435;SDS011;41307;53.142;6.430;2023-09-08T11:49:49;2.75;;;1.90;;
55435;SDS011;41307;53.142;6.430;2023-09-08T11:52:25;2.10;;;1.60;;
55435;SDS011;41307;53.142;6.430;2023-09-08T11:55:17;3.88;;;1.90;;
55435;SDS011;41307;53.142;6.430;2023-09-08T11:57:59;2.55;;;1.75;;
55435;SDS011;41307;53.142;6.430;2023-09-08T12:00:37;3.00;;;1.88;;
55435;SDS011;41307;53.142;6.430;2023-09-08T12:03:11;3.65;;;2.05;;
55435;SDS011;41307;53.142;6.430;2023-09-08T12:05:55;3.33;;;1.77;;
55435;SDS011;41307;53.142;6.430;2023-09-08T12:08:20;3.10;;;1.70;;
55435;SDS011;41307;53.142;6.430;2023-09-08T12:10:49;2.70;;;1.77;;
55435;SDS011;41307;53.142;6.430;2023-09-08T12:13:22;2.20;;;1.65;;
55435;SDS011;41307;53.142;6.430;2023-09-08T12:18:50;2.95;;;1.67;;
55435;SDS011;41307;53.142;6.430;2023-09-08T12:21:28;3.92;;;1.77;;
55435;SDS011;41307;53.142;6.430;2023-09-08T12:23:54;2.42;;;1.65;;
55435;SDS011;41307;53.142;6.430;2023-09-08T12:26:20;2.78;;;1.73;;
55435;SDS011;41307;53.142;6.430;2023-09-08T12:28:47;3.78;;;1.98;;
55435;SDS011;41307;53.142;6.430;2023-09-08T12:34:41;3.05;;;1.83;;
55435;SDS011;41307;53.142;6.430;2023-09-08T12:37:17;2.75;;;2.08;;
55435;SDS011;41307;53.142;6.430;2023-09-08T12:39:48;2.90;;;1.45;;
55435;SDS011;41307;53.142;6.430;2023-09-08T12:42:22;2.50;;;1.80;;
55435;SDS011;41307;53.142;6.430;2023-09-08T12:44:54;2.25;;;1.50;;
55435;SDS011;41307;53.142;6.430;2023-09-08T12:47:21;3.13;;;1.60;;
55435;SDS011;41307;53.142;6.430;2023-09-08T12:49:46;2.15;;;1.40;;
55435;SDS011;41307;53.142;6.430;2023-09-08T12:52:12;2.45;;;1.40;;
55435;SDS011;41307;53.142;6.430;2023-09-08T12:54:44;2.45;;;1.42;;
55435;SDS011;41307;53.142;6.430;2023-09-08T12:57:13;2.90;;;1.58;;
55435;SDS011;41307;53.142;6.430;2023-09-08T12:59:49;2.05;;;1.42;;
55435;SDS011;41307;53.142;6.430;2023-09-08T13:02:20;2.90;;;1.58;;
55435;SDS011;41307;53.142;6.430;2023-09-08T13:04:49;2.05;;;1.27;;
55435;SDS011;41307;53.142;6.430;2023-09-08T13:07:15;2.78;;;1.67;;
55435;SDS011;41307;53.142;6.430;2023-09-08T13:09:42;2.17;;;1.48;;
55435;SDS011;41307;53.142;6.430;2023-09-08T13:12:07;2.42;;;1.27;;
55435;SDS011;41307;53.142;6.430;2023-09-08T13:14:34;2.83;;;1.92;;
55435;SDS011;41307;53.142;6.430;2023-09-08T13:17:02;2.50;;;1.63;;
55435;SDS011;41307;53.142;6.430;2023-09-08T13:19:28;4.28;;;1.63;;
55435;SDS011;41307;53.142;6.430;2023-09-08T13:21:54;2.25;;;1.50;;
55435;SDS011;41307;53.142;6.430;2023-09-08T13:24:20;3.60;;;1.85;;
55435;SDS011;41307;53.142;6.430;2023-09-08T13:26:47;2.53;;;1.67;;
55435;SDS011;41307;53.142;6.430;2023-09-08T13:29:13;2.78;;;1.88;;
55435;SDS011;41307;53.142;6.430;2023-09-08T13:31:39;2.88;;;1.92;;
55435;SDS011;41307;53.142;6.430;2023-09-08T13:34:05;2.67;;;1.45;;
55435;SDS011;41307;53.142;6.430;2023-09-08T13:36:31;2.17;;;1.35;;
55435;SDS011;41307;53.142;6.430;2023-09-08T13:38:56;3.10;;;1.60;;
55435;SDS011;41307;53.142;6.430;2023-09-08T13:41:23;2.20;;;1.58;;
55435;SDS011;41307;53.142;6.430;2023-09-08T13:43:49;3.65;;;1.70;;
55435;SDS011;41307;53.142;6.430;2023-09-08T13:46:15;2.35;;;1.52;;
55435;SDS011;41307;53.142;6.430;2023-09-08T13:48:41;3.22;;;1.60;;
55435;SDS011;41307;53.142;6.430;2023-09-08T13:51:07;2.30;;;1.48;;
55435;SDS011;41307;53.142;6.430;2023-09-08T13:53:33;2.60;;;1.50;;
55435;SDS011;41307;53.142;6.430;2023-09-08T13:56:00;2.42;;;1.50;;
55435;SDS011;41307;53.142;6.430;2023-09-08T13:58:26;2.28;;;1.52;;
55435;SDS011;41307;53.142;6.430;2023-09-08T14:00:52;2.72;;;1.83;;
55435;SDS011;41307;53.142;6.430;2023-09-08T14:03:17;3.60;;;1.80;;
55435;SDS011;41307;53.142;6.430;2023-09-08T14:05:46;3.53;;;1.50;;
55435;SDS011;41307;53.142;6.430;2023-09-08T14:08:11;3.20;;;1.73;;
55435;SDS011;41307;53.142;6.430;2023-09-08T14:10:37;3.45;;;1.40;;
55435;SDS011;41307;53.142;6.430;2023-09-08T14:13:03;2.83;;;1.92;;
55435;SDS011;41307;53.142;6.430;2023-09-08T14:15:29;2.17;;;1.40;;
55435;SDS011;41307;53.142;6.430;2023-09-08T14:17:54;2.65;;;1.90;;
55435;SDS011;41307;53.142;6.430;2023-09-08T14:20:20;6.53;;;2.38;;
55435;SDS011;41307;53.142;6.430;2023-09-08T14:22:46;2.60;;;1.85;;
55435;SDS011;41307;53.142;6.430;2023-09-08T14:25:11;3.15;;;1.60;;
55435;SDS011;41307;53.142;6.430;2023-09-08T14:27:37;3.08;;;1.50;;
55435;SDS011;41307;53.142;6.430;2023-09-08T14:30:04;2.35;;;1.70;;
55435;SDS011;41307;53.142;6.430;2023-09-08T14:32:30;2.67;;;1.52;;
55435;SDS011;41307;53.142;6.430;2023-09-08T14:34:56;2.38;;;1.55;;
55435;SDS011;41307;53.142;6.430;2023-09-08T14:37:22;2.63;;;1.85;;
55435;SDS011;41307;53.142;6.430;2023-09-08T14:39:48;2.70;;;1.70;;
55435;SDS011;41307;53.142;6.430;2023-09-08T14:42:14;3.33;;;2.08;;
55435;SDS011;41307;53.142;6.430;2023-09-08T14:44:40;2.72;;;1.80;;
55435;SDS011;41307;53.142;6.430;2023-09-08T14:47:06;2.53;;;1.58;;
55435;SDS011;41307;53.142;6.430;2023-09-08T14:49:32;3.33;;;1.65;;
55435;SDS011;41307;53.142;6.430;2023-09-08T14:51:58;2.97;;;2.00;;
55435;SDS011;41307;53.142;6.430;2023-09-08T14:54:24;3.05;;;2.00;;
55435;SDS011;41307;53.142;6.430;2023-09-08T14:56:51;2.72;;;1.83;;
55435;SDS011;41307;53.142;6.430;2023-09-08T14:59:17;3.67;;;1.63;;
55435;SDS011;41307;53.142;6.430;2023-09-08T15:01:42;3.47;;;2.05;;
55435;SDS011;41307;53.142;6.430;2023-09-08T15:04:10;5.38;;;1.90;;
55435;SDS011;41307;53.142;6.430;2023-09-08T15:06:36;3.58;;;1.92;;
55435;SDS011;41307;53.142;6.430;2023-09-08T15:09:01;3.05;;;1.70;;
55435;SDS011;41307;53.142;6.430;2023-09-08T15:11:27;3.25;;;1.85;;
55435;SDS011;41307;53.142;6.430;2023-09-08T15:13:53;3.42;;;1.50;;
55435;SDS011;41307;53.142;6.430;2023-09-08T15:16:19;2.60;;;1.75;;
55435;SDS011;41307;53.142;6.430;2023-09-08T15:18:44;3.72;;;1.85;;
55435;SDS011;41307;53.142;6.430;2023-09-08T15:21:10;3.28;;;1.70;;
55435;SDS011;41307;53.142;6.430;2023-09-08T15:23:36;3.00;;;1.77;;
55435;SDS011;41307;53.142;6.430;2023-09-08T15:26:02;4.05;;;1.90;;
55435;SDS011;41307;53.142;6.430;2023-09-08T15:28:27;2.88;;;2.00;;
55435;SDS011;41307;53.142;6.430;2023-09-08T15:30:53;3.30;;;1.77;;
55435;SDS011;41307;53.142;6.430;2023-09-08T15:33:20;2.58;;;1.85;;
55435;SDS011;41307;53.142;6.430;2023-09-08T15:35:47;3.88;;;1.70;;
55435;SDS011;41307;53.142;6.430;2023-09-08T15:38:13;2.85;;;1.60;;
55435;SDS011;41307;53.142;6.430;2023-09-08T15:40:40;2.67;;;1.77;;
55435;SDS011;41307;53.142;6.430;2023-09-08T15:43:32;3.78;;;1.75;;
55435;SDS011;41307;53.142;6.430;2023-09-08T15:46:00;2.17;;;1.67;;
55435;SDS011;41307;53.142;6.430;2023-09-08T15:48:26;3.85;;;2.00;;
55435;SDS011;41307;53.142;6.430;2023-09-08T15:50:52;2.33;;;1.65;;
55435;SDS011;41307;53.142;6.430;2023-09-08T15:53:17;3.17;;;1.98;;
55435;SDS011;41307;53.142;6.430;2023-09-08T15:55:43;2.65;;;1.65;;
55435;SDS011;41307;53.142;6.430;2023-09-08T15:58:09;2.97;;;1.77;;
55435;SDS011;41307;53.142;6.430;2023-09-08T16:00:35;2.75;;;2.05;;
55435;SDS011;41307;53.142;6.430;2023-09-08T16:03:01;2.67;;;1.83;;